Time;durP1;ratioP1;P1;durP2;ratioP2;P2;SDS_P1;SDS_P2;PMS_P1;PMS_P2;Temp;Humidity;BMP_temperature;BMP_pressure;BME280_temperature;BME280_humidity;BME280_pressure;Samples;Min_cycle;Max_cycle;Signal;HPM_P1;HPM_P2
2023/11/03 00:01:45;;;;;;;4.00;0.50;;;8.00;1.00;;;;;;5009182;28;20495;-71
2023/11/03 00:04:11;;;;;;;4.30;0.70;;;7.90;1.00;;;;;;5009951;28;20886;-72
2023/11/03 00:06:41;;;;;;;3.70;0.40;;;7.90;1.00;;;;;;5009893;28;20405;-71
2023/11/03 00:09:08;;;;;;;4.60;0.50;;;7.80;1.00;;;;;;5009898;28;20381;-71
2023/11/03 00:11:33;;;;;;;4.10;0.40;;;7.80;1.00;;;;;;5009690;28;20463;-71
2023/11/03 00:13:59;;;;;;;4.40;0.80;;;7.80;1.00;;;;;;5009756;28;20465;-72
2023/11/03 00:16:24;;;;;;;4.30;0.40;;;7.80;1.00;;;;;;5009923;28;20407;-72
2023/11/03 00:18:50;;;;;;;3.57;0.30;;;7.80;1.00;;;;;;5010101;28;20396;-72
2023/11/03 00:21:15;;;;;;;7.60;0.60;;;7.80;1.00;;;;;;5009869;28;20409;-72
2023/11/03 00:23:42;;;;;;;3.60;0.40;;;7.80;1.00;;;;;;5010071;28;20401;-72
2023/11/03 00:26:10;;;;;;;5.93;0.57;;;7.80;1.00;;;;;;5009532;28;20896;-72
2023/11/03 00:28:38;;;;;;;3.70;0.30;;;7.80;1.00;;;;;;5009848;28;20404;-72
2023/11/03 00:31:04;;;;;;;4.30;0.43;;;7.80;1.00;;;;;;5009688;28;20401;-72
2023/11/03 00:33:30;;;;;;;4.60;0.50;;;7.80;1.00;;;;;;5008417;28;20431;-72
2023/11/03 00:35:55;;;;;;;3.80;0.40;;;7.90;1.00;;;;;;5009433;28;20796;-72
2023/11/03 00:38:21;;;;;;;3.80;0.60;;;7.90;1.00;;;;;;5009368;28;20393;-72
2023/11/03 00:40:46;;;;;;;4.10;0.60;;;7.80;1.00;;;;;;5009064;28;20479;-72
2023/11/03 00:43:14;;;;;;;5.00;0.50;;;7.80;1.00;;;;;;5010067;28;20473;-72
2023/11/03 00:45:39;;;;;;;3.90;0.50;;;7.80;1.00;;;;;;5010167;28;20389;-72
2023/11/03 00:48:05;;;;;;;3.70;0.40;;;7.80;1.00;;;;;;5009348;28;20400;-72
2023/11/03 00:50:31;;;;;;;3.90;0.60;;;7.80;1.00;;;;;;5009072;28;20393;-72
2023/11/03 00:52:56;;;;;;;4.68;0.28;;;7.70;1.00;;;;;;5009456;28;20439;-72
2023/11/03 00:55:22;;;;;;;4.80;0.60;;;7.60;1.00;;;;;;5008838;28;20420;-72
2023/11/03 00:57:48;;;;;;;4.47;0.45;;;7.60;1.00;;;;;;5008123;28;20472;-72
2023/11/03 01:00:14;;;;;;;5.55;0.60;;;7.50;1.00;;;;;;5009091;28;20585;-72
2023/11/03 01:02:43;;;;;;;3.90;0.30;;;7.50;1.00;;;;;;5009893;28;20859;-72
2023/11/03 01:05:14;;;;;;;5.03;0.68;;;7.40;1.00;;;;;;5009347;28;20400;-72
2023/11/03 01:07:39;;;;;;;6.50;0.87;;;7.40;1.00;;;;;;5008661;28;20404;-72
2023/11/03 01:10:08;;;;;;;5.32;0.70;;;7.40;1.00;;;;;;5008908;28;20454;-72
2023/11/03 01:12:34;;;;;;;4.00;0.50;;;7.30;1.00;;;;;;5008990;28;20412;-72
2023/11/03 01:14:59;;;;;;;4.70;0.70;;;7.30;1.00;;;;;;5008900;28;20432;-72
2023/11/03 01:17:27;;;;;;;4.70;0.90;;;7.30;1.00;;;;;;5008312;28;20413;-72
2023/11/03 01:19:52;;;;;;;5.50;0.50;;;7.20;1.00;;;;;;5008861;28;20388;-72
2023/11/03 01:22:19;;;;;;;3.70;0.50;;;7.10;1.00;;;;;;5008593;28;20400;-72
2023/11/03 01:24:45;;;;;;;3.70;0.50;;;7.00;1.00;;;;;;5008981;28;20967;-72
2023/11/03 01:27:10;;;;;;;4.00;0.50;;;7.00;1.00;;;;;;5009473;28;20837;-72
2023/11/03 01:29:36;;;;;;;3.75;0.55;;;7.00;1.00;;;;;;5012329;28;20480;-72
2023/11/03 01:32:02;;;;;;;5.80;0.60;;;7.10;1.00;;;;;;5012891;28;20396;-72
2023/11/03 01:34:28;;;;;;;4.47;0.75;;;7.10;1.00;;;;;;5012632;28;20468;-72
2023/11/03 01:36:53;;;;;;;6.90;0.70;;;7.00;1.00;;;;;;5012468;28;20428;-72
2023/11/03 01:39:18;;;;;;;5.30;1.20;;;7.00;1.00;;;;;;5012786;28;20393;-72
2023/11/03 01:41:44;;;;;;;4.30;0.50;;;6.90;1.00;;;;;;5012809;28;20404;-72
2023/11/03 01:44:11;;;;;;;4.70;0.60;;;6.90;1.00;;;;;;5013050;28;20396;-72
2023/11/03 01:46:38;;;;;;;3.90;0.55;;;6.90;1.00;;;;;;5012416;28;20888;-72
2023/11/03 01:49:08;;;;;;;3.80;0.40;;;6.90;1.00;;;;;;5012673;28;20393;-72
2023/11/03 01:51:35;;;;;;;4.00;0.60;;;6.80;1.00;;;;;;5012428;28;20487;-72
2023/11/03 01:54:02;;;;;;;3.80;0.60;;;6.80;1.00;;;;;;5012294;28;20912;-72
2023/11/03 01:56:29;;;;;;;5.00;0.80;;;6.90;1.00;;;;;;5012497;28;20439;-72
2023/11/03 01:58:56;;;;;;;4.90;0.60;;;6.90;1.00;;;;;;5012091;28;20503;-72
2023/11/03 02:01:22;;;;;;;4.50;0.70;;;6.90;1.00;;;;;;5012409;28;20447;-72
2023/11/03 02:03:48;;;;;;;3.70;0.32;;;6.90;1.00;;;;;;5012214;28;20397;-72
2023/11/03 02:06:14;;;;;;;3.60;0.40;;;6.90;1.00;;;;;;5011201;28;20436;-72
2023/11/03 02:08:40;;;;;;;5.20;0.80;;;6.80;1.00;;;;;;5009326;28;20440;-72
2023/11/03 02:11:06;;;;;;;6.53;0.80;;;6.80;1.00;;;;;;5010322;28;20396;-73
2023/11/03 02:13:35;;;;;;;3.70;0.40;;;6.80;1.00;;;;;;5010328;28;20478;-72
2023/11/03 02:16:01;;;;;;;3.60;0.30;;;6.80;1.00;;;;;;5008875;28;21021;-73
2023/11/03 02:18:27;;;;;;;5.28;1.08;;;6.70;1.00;;;;;;4994612;28;20473;-73
2023/11/03 02:20:53;;;;;;;3.60;0.33;;;6.60;1.00;;;;;;4992302;28;20890;-73
2023/11/03 02:23:18;;;;;;;5.70;0.73;;;6.60;1.00;;;;;;4992258;28;20434;-73
2023/11/03 02:25:44;;;;;;;4.20;0.70;;;6.50;1.00;;;;;;5001578;28;20389;-73
2023/11/03 02:28:09;;;;;;;4.20;0.80;;;6.50;1.00;;;;;;5012296;28;20431;-72
2023/11/03 02:30:35;;;;;;;4.00;0.60;;;6.60;1.00;;;;;;5011729;28;20404;-72
2023/11/03 02:33:00;;;;;;;4.80;0.83;;;6.60;1.00;;;;;;5011425;28;20455;-72
2023/11/03 02:35:26;;;;;;;4.60;0.55;;;6.60;1.00;;;;;;5011129;28;20531;-73
2023/11/03 02:37:51;;;;;;;4.60;0.50;;;6.50;1.00;;;;;;5011769;28;20385;-72
2023/11/03 02:40:17;;;;;;;4.00;0.40;;;6.40;1.00;;;;;;5010326;28;20893;-72
2023/11/03 02:42:42;;;;;;;3.60;0.40;;;6.50;1.00;;;;;;5012056;28;20384;-72
2023/11/03 02:45:10;;;;;;;9.53;0.80;;;6.40;1.00;;;;;;5011049;28;20756;-72
2023/11/03 02:47:35;;;;;;;4.40;0.70;;;6.30;1.00;;;;;;5011407;28;20395;-72
2023/11/03 02:50:01;;;;;;;3.70;0.40;;;6.20;1.00;;;;;;5011350;28;20401;-73
2023/11/03 02:52:26;;;;;;;3.60;0.40;;;6.20;1.00;;;;;;5011543;28;20387;-73
2023/11/03 02:54:53;;;;;;;3.70;0.40;;;6.20;1.00;;;;;;5010111;28;20412;-73
2023/11/03 02:57:18;;;;;;;3.65;0.38;;;6.30;1.00;;;;;;5008401;28;20785;-73
2023/11/03 02:59:44;;;;;;;3.67;0.30;;;6.30;1.00;;;;;;5010981;28;21030;-73
2023/11/03 03:02:10;;;;;;;4.07;0.70;;;6.40;1.00;;;;;;5011640;28;20892;-73
2023/11/03 03:04:35;;;;;;;4.20;0.50;;;6.50;1.00;;;;;;5010540;28;20400;-73
2023/11/03 03:07:01;;;;;;;4.90;0.70;;;6.50;1.00;;;;;;5011378;28;20404;-73
2023/11/03 03:09:26;;;;;;;7.80;0.93;;;6.50;1.00;;;;;;5011268;28;20780;-73
2023/11/03 03:11:52;;;;;;;3.60;0.40;;;6.60;1.00;;;;;;5011434;28;20720;-73
2023/11/03 03:14:17;;;;;;;3.60;0.40;;;6.60;1.00;;;;;;5011266;28;20433;-73
2023/11/03 03:16:43;;;;;;;3.80;0.43;;;6.60;1.00;;;;;;5011348;28;20779;-73
2023/11/03 03:19:08;;;;;;;3.90;0.60;;;6.80;1.00;;;;;;5011050;28;20400;-73
2023/11/03 03:21:34;;;;;;;4.90;0.70;;;6.90;1.00;;;;;;5011424;28;20397;-70
2023/11/03 03:23:59;;;;;;;6.60;0.60;;;7.00;1.00;;;;;;5010811;28;20777;-72
2023/11/03 03:26:26;;;;;;;3.97;0.60;;;6.90;1.00;;;;;;5011081;28;20423;-72
2023/11/03 03:28:51;;;;;;;4.00;0.60;;;6.80;1.00;;;;;;5011478;28;20393;-72
2023/11/03 03:31:17;;;;;;;3.70;0.50;;;6.80;1.00;;;;;;5009583;28;20403;-73
2023/11/03 03:33:43;;;;;;;3.95;0.77;;;6.80;1.00;;;;;;5008641;28;20428;-72
2023/11/03 03:36:09;;;;;;;4.60;0.70;;;6.70;1.00;;;;;;5010571;28;20479;-72
2023/11/03 03:38:35;;;;;;;4.55;0.73;;;6.70;1.00;;;;;;5009877;28;20381;-72
2023/11/03 03:41:00;;;;;;;4.00;0.60;;;6.70;1.00;;;;;;5009446;28;20504;-72
2023/11/03 03:43:26;;;;;;;3.70;0.57;;;6.80;1.00;;;;;;5010525;28;20480;-73
2023/11/03 03:45:51;;;;;;;3.60;0.40;;;6.90;1.00;;;;;;5010161;28;20389;-72
2023/11/03 03:48:17;;;;;;;3.80;0.40;;;7.00;1.00;;;;;;5010126;28;20401;-72
2023/11/03 03:50:43;;;;;;;4.10;0.40;;;7.10;1.00;;;;;;5010358;28;20404;-72
2023/11/03 03:53:08;;;;;;;3.80;0.30;;;7.20;1.00;;;;;;5010596;28;20924;-73
2023/11/03 03:55:34;;;;;;;7.30;1.00;;;7.20;1.00;;;;;;5010369;28;20435;-71
2023/11/03 03:57:59;;;;;;;4.00;0.57;;;7.20;1.00;;;;;;5010105;28;20408;-70
2023/11/03 04:00:25;;;;;;;3.90;0.40;;;7.40;1.00;;;;;;5009910;28;20475;-70
2023/11/03 04:02:50;;;;;;;4.40;0.63;;;7.50;1.00;;;;;;5010104;28;20479;-71
2023/11/03 04:05:16;;;;;;;3.83;0.50;;;7.60;1.00;;;;;;5009922;28;20892;-71
2023/11/03 04:07:41;;;;;;;3.80;0.50;;;7.70;1.00;;;;;;5010335;28;20524;-70
2023/11/03 04:10:07;;;;;;;3.90;0.60;;;7.70;1.00;;;;;;5010255;28;20907;-70
2023/11/03 04:12:33;;;;;;;7.63;0.82;;;7.70;1.00;;;;;;5010194;28;20385;-70
2023/11/03 04:14:58;;;;;;;4.40;0.60;;;7.70;1.00;;;;;;5009570;28;20913;-71
2023/11/03 04:17:24;;;;;;;3.60;0.40;;;7.70;1.00;;;;;;5010324;28;20455;-71
2023/11/03 04:19:49;;;;;;;4.57;0.77;;;7.70;1.00;;;;;;5009724;28;20632;-71
2023/11/03 04:22:15;;;;;;;4.13;0.67;;;7.70;1.00;;;;;;5009743;28;20391;-71
2023/11/03 04:24:40;;;;;;;3.90;0.50;;;7.70;1.00;;;;;;5010415;28;20389;-71
2023/11/03 04:27:06;;;;;;;4.00;0.77;;;7.70;1.00;;;;;;5009669;28;20404;-71
2023/11/03 04:29:31;;;;;;;4.40;0.70;;;7.70;1.00;;;;;;5009129;28;20772;-71
2023/11/03 04:31:57;;;;;;;3.60;0.40;;;7.80;1.00;;;;;;5007866;28;20451;-70
2023/11/03 04:34:22;;;;;;;4.30;0.80;;;7.80;1.00;;;;;;5008655;28;20416;-70
2023/11/03 04:36:50;;;;;;;4.70;0.68;;;7.80;1.00;;;;;;5009071;28;20396;-71
2023/11/03 04:39:15;;;;;;;3.80;0.70;;;7.80;1.00;;;;;;5008879;28;20867;-70
2023/11/03 04:41:41;;;;;;;4.00;0.55;;;7.90;1.00;;;;;;5009573;28;20389;-70
2023/11/03 04:44:06;;;;;;;4.20;0.50;;;7.90;1.00;;;;;;5008681;28;20519;-70
2023/11/03 04:46:32;;;;;;;4.60;0.70;;;7.90;1.00;;;;;;5008821;28;20483;-70
2023/11/03 04:48:58;;;;;;;3.80;0.40;;;7.90;1.00;;;;;;5008648;28;20408;-71
2023/11/03 04:51:24;;;;;;;4.45;0.80;;;8.00;1.00;;;;;;5008731;28;20385;-70
2023/11/03 04:53:49;;;;;;;5.60;0.80;;;8.00;1.00;;;;;;4995613;28;20452;-70
2023/11/03 04:56:15;;;;;;;6.13;0.70;;;7.90;1.00;;;;;;4999522;28;20511;-70
2023/11/03 04:58:41;;;;;;;6.80;0.60;;;7.90;1.00;;;;;;4998585;28;20436;-70
2023/11/03 05:01:06;;;;;;;4.32;0.60;;;7.90;1.00;;;;;;5004104;28;20783;-71
2023/11/03 05:03:32;;;;;;;4.67;1.07;;;7.90;1.00;;;;;;4998879;28;20487;-70
2023/11/03 05:05:57;;;;;;;3.70;0.47;;;7.90;1.00;;;;;;4991267;28;20413;-70
2023/11/03 05:08:23;;;;;;;5.10;0.60;;;8.00;1.00;;;;;;4996004;28;20506;-71
2023/11/03 05:10:49;;;;;;;5.30;0.73;;;8.10;1.00;;;;;;5003787;28;20405;-71
2023/11/03 05:13:16;;;;;;;5.30;0.80;;;8.00;1.00;;;;;;4992430;28;20480;-70
2023/11/03 05:15:42;;;;;;;3.70;0.40;;;8.10;1.00;;;;;;5003372;28;20440;-70
2023/11/03 05:18:10;;;;;;;6.13;0.98;;;8.30;1.00;;;;;;4994352;28;20425;-71
2023/11/03 05:20:36;;;;;;;5.50;1.20;;;8.30;1.00;;;;;;5000670;28;20456;-70
2023/11/03 05:23:02;;;;;;;5.35;0.40;;;8.40;1.00;;;;;;4989148;28;20840;-70
2023/11/03 05:25:27;;;;;;;3.97;0.50;;;8.30;1.00;;;;;;4988977;28;20497;-70
2023/11/03 05:27:53;;;;;;;3.72;0.50;;;8.30;1.00;;;;;;5004921;28;20900;-73
2023/11/03 05:30:19;;;;;;;5.60;0.80;;;8.30;1.00;;;;;;4992351;28;20410;-71
2023/11/03 05:32:44;;;;;;;3.70;0.35;;;8.30;1.00;;;;;;5001222;28;20962;-70
2023/11/03 05:35:10;;;;;;;4.70;0.40;;;8.30;1.00;;;;;;4995704;28;20453;-70
2023/11/03 05:37:35;;;;;;;4.70;0.60;;;8.30;1.00;;;;;;4990602;28;20410;-70
2023/11/03 05:40:03;;;;;;;5.68;0.60;;;8.40;1.00;;;;;;4994274;28;20904;-69
2023/11/03 05:42:29;;;;;;;6.00;0.70;;;8.40;1.00;;;;;;4999017;28;20444;-69
2023/11/03 05:44:54;;;;;;;7.60;1.10;;;8.30;1.00;;;;;;5002603;28;20463;-69
2023/11/03 05:47:20;;;;;;;4.43;0.60;;;8.30;1.00;;;;;;5003033;28;20410;-70
2023/11/03 05:49:45;;;;;;;5.30;0.43;;;8.40;1.00;;;;;;5002069;28;20404;-69
2023/11/03 05:52:11;;;;;;;4.80;0.90;;;8.40;1.00;;;;;;5000433;28;20411;-69
2023/11/03 05:54:37;;;;;;;4.70;0.50;;;8.50;1.00;;;;;;4999125;28;20431;-69
2023/11/03 05:57:02;;;;;;;4.20;0.70;;;8.50;1.00;;;;;;4997607;28;20454;-70
2023/11/03 05:59:28;;;;;;;5.80;0.80;;;8.50;1.00;;;;;;5000906;28;20756;-70
2023/11/03 06:01:53;;;;;;;3.70;0.40;;;8.50;1.00;;;;;;4995008;28;20408;-70
2023/11/03 06:04:19;;;;;;;4.35;0.57;;;8.50;1.00;;;;;;5000905;28;20499;-69
2023/11/03 06:06:44;;;;;;;3.77;0.50;;;8.50;1.00;;;;;;5000042;28;20794;-72
2023/11/03 06:09:11;;;;;;;4.45;0.60;;;8.50;1.00;;;;;;4999109;28;20471;-70
2023/11/03 06:11:37;;;;;;;5.00;0.50;;;8.40;1.00;;;;;;4997745;28;20403;-70
2023/11/03 06:14:04;;;;;;;5.10;0.50;;;8.40;1.00;;;;;;4996923;28;20418;-70
2023/11/03 06:16:30;;;;;;;3.90;0.50;;;8.40;1.00;;;;;;5006078;28;20474;-70
2023/11/03 06:18:56;;;;;;;3.80;0.50;;;8.40;1.00;;;;;;4996295;28;20769;-70
2023/11/03 06:21:22;;;;;;;3.88;0.43;;;8.40;1.00;;;;;;5003502;28;20510;-70
2023/11/03 06:23:47;;;;;;;6.80;1.05;;;8.40;1.00;;;;;;5009352;28;20397;-71
2023/11/03 06:26:13;;;;;;;4.83;0.73;;;8.50;1.00;;;;;;4992881;28;20933;-75
2023/11/03 06:28:38;;;;;;;3.70;0.40;;;8.50;1.00;;;;;;5002103;28;20433;-70
2023/11/03 06:31:04;;;;;;;3.70;0.40;;;8.50;1.00;;;;;;5006983;28;20413;-70
2023/11/03 06:33:29;;;;;;;8.60;0.90;;;8.50;1.00;;;;;;4994833;28;20410;-70
2023/11/03 06:35:57;;;;;;;4.10;0.60;;;8.40;1.00;;;;;;5003148;28;20417;-71
2023/11/03 06:38:22;;;;;;;4.50;0.80;;;8.40;1.00;;;;;;5008581;28;20410;-70
2023/11/03 06:40:49;;;;;;;3.90;0.70;;;8.50;1.00;;;;;;4995354;28;20425;-71
2023/11/03 06:43:15;;;;;;;6.90;0.77;;;8.50;1.00;;;;;;4992220;28;20407;-71
2023/11/03 06:45:41;;;;;;;3.80;0.50;;;8.60;1.00;;;;;;4992433;28;20506;-70
2023/11/03 06:48:06;;;;;;;3.90;0.50;;;8.60;1.00;;;;;;4991799;28;20405;-70
2023/11/03 06:50:32;;;;;;;4.40;0.70;;;8.60;1.00;;;;;;5000026;28;20433;-71
2023/11/03 06:52:57;;;;;;;4.50;0.90;;;8.60;1.00;;;;;;4992415;28;20479;-70
2023/11/03 06:55:23;;;;;;;4.50;0.60;;;8.60;1.00;;;;;;4991905;28;20430;-70
2023/11/03 06:57:48;;;;;;;4.05;0.70;;;8.60;1.00;;;;;;5004574;28;20512;-70
2023/11/03 07:00:14;;;;;;;8.10;1.10;;;8.60;1.00;;;;;;5008821;28;20421;-70
2023/11/03 07:02:40;;;;;;;4.30;0.70;;;8.50;1.00;;;;;;5001688;28;20410;-70
2023/11/03 07:05:08;;;;;;;4.70;1.00;;;8.50;1.00;;;;;;4993906;28;20418;-70
2023/11/03 07:07:34;;;;;;;3.70;0.60;;;8.40;1.00;;;;;;5000395;28;20836;-70
2023/11/03 07:10:00;;;;;;;3.80;0.60;;;8.40;1.00;;;;;;5014762;28;20411;-71
2023/11/03 07:12:26;;;;;;;6.88;0.82;;;8.30;1.00;;;;;;5007122;28;20412;-71
2023/11/03 07:14:52;;;;;;;4.57;0.88;;;8.20;1.00;;;;;;5010926;28;20417;-71
2023/11/03 07:17:17;;;;;;;3.90;0.40;;;8.20;1.00;;;;;;5004155;28;20390;-70
2023/11/03 07:19:43;;;;;;;3.60;0.40;;;8.30;1.00;;;;;;5011356;28;20497;-71
2023/11/03 07:22:08;;;;;;;6.97;0.77;;;8.30;1.00;;;;;;5011454;28;20479;-71
2023/11/03 07:24:34;;;;;;;5.60;0.70;;;8.40;1.00;;;;;;5010670;28;20404;-71
2023/11/03 07:26:59;;;;;;;4.10;0.80;;;8.40;1.00;;;;;;5009591;28;20392;-79
2023/11/03 07:29:25;;;;;;;4.00;0.50;;;8.50;1.00;;;;;;5010291;28;20400;-70
2023/11/03 07:31:50;;;;;;;3.92;0.50;;;8.50;1.00;;;;;;5011124;28;20401;-70
2023/11/03 07:34:18;;;;;;;4.10;0.30;;;8.50;1.00;;;;;;5010674;28;20511;-70
2023/11/03 07:36:44;;;;;;;5.10;1.00;;;8.50;1.00;;;;;;5011264;28;20392;-69
2023/11/03 07:39:11;;;;;;;10.20;1.70;;;8.40;1.00;;;;;;5002969;28;20468;-70
2023/11/03 07:41:36;;;;;;;5.00;0.60;;;8.40;1.00;;;;;;4999308;28;20784;-71
2023/11/03 07:44:03;;;;;;;5.30;0.80;;;8.50;1.00;;;;;;4991326;28;20398;-70
2023/11/03 07:46:31;;;;;;;4.00;0.60;;;8.50;1.00;;;;;;4994251;28;20396;-70
2023/11/03 07:48:57;;;;;;;3.65;0.40;;;8.50;1.00;;;;;;5010295;28;20784;-70
2023/11/03 07:51:24;;;;;;;6.40;0.70;;;8.60;1.00;;;;;;5010529;28;20923;-70
2023/11/03 07:53:51;;;;;;;4.50;0.70;;;8.60;1.00;;;;;;5010021;28;20420;-71
2023/11/03 07:56:16;;;;;;;3.90;0.60;;;8.60;1.00;;;;;;5009405;28;20983;-70
2023/11/03 07:58:42;;;;;;;4.90;0.50;;;8.80;1.00;;;;;;5010902;28;20495;-71
2023/11/03 08:01:09;;;;;;;5.10;1.10;;;8.80;1.00;;;;;;5010824;28;20480;-71
2023/11/03 08:03:34;;;;;;;3.70;0.50;;;8.90;1.00;;;;;;5003037;28;20487;-71
2023/11/03 08:06:01;;;;;;;4.30;0.90;;;9.00;1.00;;;;;;4991140;28;20501;-70
2023/11/03 08:08:26;;;;;;;4.30;0.70;;;9.10;1.00;;;;;;4990245;28;20941;-71
2023/11/03 08:10:52;;;;;;;8.60;0.80;;;9.10;1.00;;;;;;4990665;28;20485;-71
2023/11/03 08:13:21;;;;;;;4.53;1.20;;;9.20;1.00;;;;;;4997361;28;20419;-71
2023/11/03 08:15:46;;;;;;;4.80;1.02;;;9.10;1.00;;;;;;5009676;28;20404;-71
2023/11/03 08:18:12;;;;;;;6.00;0.60;;;9.10;1.00;;;;;;5009861;28;20478;-71
2023/11/03 08:20:37;;;;;;;4.10;0.50;;;9.10;1.00;;;;;;5010194;28;20393;-71
2023/11/03 08:23:04;;;;;;;4.00;0.70;;;9.20;1.00;;;;;;5009771;28;20404;-71
2023/11/03 08:25:32;;;;;;;8.05;1.17;;;9.20;1.00;;;;;;5004079;28;20808;-71
2023/11/03 08:27:59;;;;;;;4.47;0.75;;;9.10;1.00;;;;;;5010136;28;20397;-71
2023/11/03 08:30:25;;;;;;;3.80;0.50;;;9.10;1.00;;;;;;5010524;28;20392;-71
2023/11/03 08:32:50;;;;;;;10.10;1.35;;;9.30;1.00;;;;;;5009887;28;20523;-71
2023/11/03 08:35:20;;;;;;;6.10;1.00;;;9.20;1.00;;;;;;5002566;28;20511;-70
2023/11/03 08:37:46;;;;;;;4.80;1.00;;;9.40;1.00;;;;;;5008678;28;20392;-71
2023/11/03 08:40:16;;;;;;;4.20;0.82;;;9.50;1.00;;;;;;5010405;28;20400;-70
2023/11/03 08:42:46;;;;;;;5.50;0.95;;;9.60;1.00;;;;;;5009814;28;20418;-70
2023/11/03 08:45:12;;;;;;;4.00;0.40;;;9.60;1.00;;;;;;5010261;28;20484;-70
2023/11/03 08:47:41;;;;;;;5.15;1.30;;;9.70;1.00;;;;;;5007458;28;20897;-71
2023/11/03 08:50:11;;;;;;;4.18;0.70;;;9.80;1.00;;;;;;5008716;28;20432;-71
2023/11/03 08:52:37;;;;;;;7.35;0.90;;;9.80;1.00;;;;;;5004610;28;20381;-71
2023/11/03 08:55:07;;;;;;;6.70;1.90;;;9.80;1.00;;;;;;5008739;28;20424;-71
2023/11/03 08:57:34;;;;;;;7.20;1.50;;;9.80;1.00;;;;;;5009140;28;20479;-71
2023/11/03 09:00:04;;;;;;;7.82;1.33;;;9.90;1.00;;;;;;5005513;28;20778;-71
2023/11/03 09:02:29;;;;;;;4.80;0.93;;;10.00;1.00;;;;;;5005188;28;20500;-69
2023/11/03 09:04:55;;;;;;;7.65;0.77;;;10.10;1.00;;;;;;5002488;28;20852;-70
2023/11/03 09:07:20;;;;;;;5.20;0.80;;;10.10;1.00;;;;;;5008782;28;20392;-70
2023/11/03 09:09:46;;;;;;;4.70;0.80;;;10.00;1.00;;;;;;5007289;28;20409;-70
2023/11/03 09:12:12;;;;;;;4.00;0.60;;;10.10;1.00;;;;;;5007716;28;20432;-70
2023/11/03 09:14:38;;;;;;;4.13;0.77;;;10.20;1.00;;;;;;5008728;28;20430;-70
2023/11/03 09:17:06;;;;;;;5.38;0.82;;;10.20;1.00;;;;;;5009245;28;20511;-70
2023/11/03 09:19:31;;;;;;;5.20;0.70;;;10.20;1.00;;;;;;5007365;28;20916;-70
2023/11/03 09:21:57;;;;;;;4.50;0.90;;;10.00;1.00;;;;;;5009207;28;20437;-70
2023/11/03 09:24:22;;;;;;;5.10;0.60;;;9.80;1.00;;;;;;5004985;28;20397;-70
2023/11/03 09:26:48;;;;;;;5.87;0.80;;;9.90;1.00;;;;;;5008188;28;20405;-70
2023/11/03 09:29:14;;;;;;;4.40;0.70;;;9.70;1.00;;;;;;5007345;28;20483;-70
2023/11/03 09:31:41;;;;;;;4.27;0.93;;;9.80;1.00;;;;;;5009755;28;20393;-71
2023/11/03 09:34:06;;;;;;;5.90;1.40;;;9.90;1.00;;;;;;5008644;28;20499;-71
2023/11/03 09:36:32;;;;;;;4.40;0.80;;;10.20;1.00;;;;;;5007775;28;20504;-72
2023/11/03 09:38:57;;;;;;;4.70;0.60;;;10.30;1.00;;;;;;5008314;28;20406;-72
2023/11/03 09:41:25;;;;;;;4.20;0.70;;;10.30;1.00;;;;;;5009336;28;20457;-71
2023/11/03 09:43:50;;;;;;;4.28;0.70;;;10.20;1.00;;;;;;5008797;28;20432;-72
2023/11/03 09:46:18;;;;;;;9.60;0.90;;;10.30;1.00;;;;;;5008926;28;20432;-71
2023/11/03 09:48:43;;;;;;;4.00;0.50;;;10.70;1.00;;;;;;5009207;28;20451;-71
2023/11/03 09:51:10;;;;;;;7.70;0.60;;;10.80;1.00;;;;;;5013313;28;20445;-72
2023/11/03 09:53:38;;;;;;;4.20;0.60;;;10.80;1.00;;;;;;5012970;28;20389;-72
2023/11/03 09:56:06;;;;;;;4.47;0.50;;;10.80;1.00;;;;;;5004763;28;20424;-71
2023/11/03 09:58:34;;;;;;;4.72;0.90;;;10.50;99.90;;;;;;5010241;28;20402;-72
2023/11/03 10:01:01;;;;;;;8.95;2.30;;;10.30;99.90;;;;;;5012058;28;20404;-71
2023/11/03 10:03:27;;;;;;;8.30;3.10;;;10.30;99.90;;;;;;5011549;28;20495;-72
2023/11/03 10:05:53;;;;;;;5.35;1.30;;;10.50;99.90;;;;;;5012328;28;20405;-72
2023/11/03 10:08:20;;;;;;;5.50;1.10;;;10.40;99.90;;;;;;5012664;28;20400;-71
2023/11/03 10:10:46;;;;;;;3.80;0.30;;;10.40;99.90;;;;;;5012014;28;20415;-71
2023/11/03 10:13:13;;;;;;;5.00;0.40;;;10.50;99.90;;;;;;5012486;28;20424;-71
2023/11/03 10:15:40;;;;;;;10.40;0.80;;;10.50;99.90;;;;;;4995087;28;20422;-71
2023/11/03 10:18:05;;;;;;;5.10;0.50;;;10.90;99.90;;;;;;5011682;28;20400;-72
2023/11/03 10:20:31;;;;;;;4.10;0.50;;;11.40;99.90;;;;;;5011017;28;20403;-73
2023/11/03 10:22:57;;;;;;;4.00;0.30;;;11.50;99.90;;;;;;5002431;28;20390;-72
2023/11/03 10:25:26;;;;;;;4.10;0.40;;;11.00;99.90;;;;;;4992573;28;20398;-70
2023/11/03 10:27:55;;;;;;;3.90;0.40;;;10.70;99.90;;;;;;4992349;28;20405;-70
2023/11/03 10:30:26;;;;;;;7.10;0.50;;;10.70;99.90;;;;;;4992776;28;20879;-70
2023/11/03 10:32:52;;;;;;;5.50;0.50;;;10.60;99.90;;;;;;4994881;28;20751;-70
2023/11/03 10:35:18;;;;;;;7.38;1.30;;;10.80;99.90;;;;;;5006144;28;20500;-70
2023/11/03 10:37:46;;;;;;;4.00;0.40;;;11.00;99.90;;;;;;5013528;28;20477;-70
2023/11/03 10:40:15;;;;;;;4.00;0.50;;;11.00;99.90;;;;;;5031728;28;20399;-70
2023/11/03 10:42:50;;;;;;;6.95;0.80;;;11.10;99.90;;;;;;5025496;28;20476;-70
2023/11/03 10:45:20;;;;;;;4.30;0.50;;;10.90;99.90;;;;;;5011717;28;20827;-71
2023/11/03 10:48:08;;;;;;;4.70;0.50;;;10.80;99.90;;;;;;5011852;28;20388;-70
2023/11/03 10:50:35;;;;;;;4.00;0.50;;;10.60;99.90;;;;;;5011895;28;20486;-70
2023/11/03 10:53:36;;;;;;;4.07;0.50;;;10.50;99.90;;;;;;5011465;28;20868;-70
2023/11/03 10:56:05;;;;;;;3.80;0.30;;;10.50;99.90;;;;;;5003641;28;20416;-70
2023/11/03 10:58:31;;;;;;;3.80;0.30;;;10.30;99.90;;;;;;5003936;28;20527;-70
2023/11/03 11:01:03;;;;;;;4.40;0.60;;;10.20;99.90;;;;;;4996481;28;20395;-70
2023/11/03 11:04:08;;;;;;;3.80;0.30;;;10.30;99.90;;;;;;4991778;28;20438;-70
2023/11/03 11:06:46;;;;;;;3.87;0.40;;;10.40;99.90;;;;;;4998052;28;20420;-71
2023/11/03 11:09:23;;;;;;;12.15;2.55;;;10.50;99.90;;;;;;5011538;28;20464;-73
2023/11/03 11:11:49;;;;;;;6.00;0.52;;;10.60;99.90;;;;;;5009899;28;20579;-72
2023/11/03 11:14:23;;;;;;;3.90;0.50;;;10.40;99.90;;;;;;5005904;28;20888;-72
2023/11/03 11:16:55;;;;;;;4.30;0.40;;;10.20;99.90;;;;;;4996256;28;20426;-71
2023/11/03 11:19:40;;;;;;;6.10;0.47;;;10.20;99.90;;;;;;5011228;28;20380;-72
2023/11/03 11:22:09;;;;;;;4.20;0.40;;;10.30;99.90;;;;;;5008032;28;20408;-71
2023/11/03 11:24:38;;;;;;;11.20;1.90;;;10.40;99.90;;;;;;5004241;28;20945;-72
2023/11/03 11:27:20;;;;;;;8.27;0.77;;;10.70;99.90;;;;;;5008599;28;20887;-71
2023/11/03 11:30:13;;;;;;;7.30;0.50;;;10.90;99.90;;;;;;5002615;28;20395;-71
2023/11/03 11:32:38;;;;;;;3.80;0.20;;;10.80;99.90;;;;;;4991721;28;20922;-72
2023/11/03 11:35:10;;;;;;;3.90;0.40;;;10.90;99.90;;;;;;5009013;28;20452;-72
2023/11/03 11:37:37;;;;;;;3.90;0.30;;;11.00;99.90;;;;;;5011074;28;20876;-71
2023/11/03 11:40:05;;;;;;;3.90;0.30;;;10.90;99.90;;;;;;5011023;28;20385;-72
2023/11/03 11:42:42;;;;;;;4.30;0.50;;;10.50;99.90;;;;;;5010919;28;20454;-73
2023/11/03 11:45:11;;;;;;;4.00;0.50;;;10.70;99.90;;;;;;5010319;28;20420;-72
2023/11/03 11:47:44;;;;;;;3.90;0.32;;;10.60;99.90;;;;;;5010533;28;20423;-72
2023/11/03 11:50:11;;;;;;;4.32;0.47;;;10.50;99.90;;;;;;5011154;28;20396;-73
2023/11/03 11:52:39;;;;;;;6.00;0.40;;;10.60;99.90;;;;;;5010852;28;20949;-71
2023/11/03 11:55:05;;;;;;;8.38;0.50;;;10.50;99.90;;;;;;5010492;28;20420;-70
2023/11/03 11:57:32;;;;;;;13.10;1.10;;;10.50;99.90;;;;;;5010212;28;20396;-70
2023/11/03 11:59:57;;;;;;;4.20;0.30;;;10.50;99.90;;;;;;5007101;28;20413;-70
2023/11/03 12:02:24;;;;;;;4.00;0.40;;;10.50;99.90;;;;;;5003233;28;20905;-71
2023/11/03 12:04:52;;;;;;;4.20;0.38;;;10.70;99.90;;;;;;5004713;28;20492;-72
2023/11/03 12:07:24;;;;;;;3.90;0.40;;;10.80;99.90;;;;;;5010405;28;20737;-72
2023/11/03 12:09:54;;;;;;;4.50;0.60;;;10.80;99.90;;;;;;5009208;28;20444;-71
2023/11/03 12:12:23;;;;;;;5.32;0.65;;;10.60;99.90;;;;;;5009184;28;20745;-71
2023/11/03 12:14:49;;;;;;;5.85;0.60;;;10.70;99.90;;;;;;5007997;28;20500;-73
2023/11/03 12:17:19;;;;;;;4.60;0.80;;;10.70;99.90;;;;;;5010040;28;20415;-72
2023/11/03 12:19:47;;;;;;;4.20;0.50;;;10.70;99.90;;;;;;5010402;28;20393;-72
2023/11/03 12:22:26;;;;;;;8.75;0.45;;;10.70;99.90;;;;;;5010313;28;20910;-72
2023/11/03 12:24:54;;;;;;;3.80;0.40;;;10.60;99.90;;;;;;5009910;28;20400;-72
2023/11/03 12:27:21;;;;;;;4.20;0.50;;;10.60;99.90;;;;;;5010546;28;20385;-72
2023/11/03 12:29:47;;;;;;;3.90;0.30;;;10.50;99.90;;;;;;5010037;28;20792;-72
2023/11/03 12:32:13;;;;;;;3.90;0.30;;;10.50;99.90;;;;;;5010780;28;20393;-72
2023/11/03 12:34:40;;;;;;;4.00;0.50;;;10.30;99.90;;;;;;5010866;28;20501;-71
2023/11/03 12:37:07;;;;;;;5.40;1.17;;;10.40;99.90;;;;;;5008908;28;20412;-71
2023/11/03 12:39:49;;;;;;;4.30;0.50;;;10.60;99.90;;;;;;5009709;28;20705;-71
2023/11/03 12:42:16;;;;;;;5.10;0.50;;;10.80;99.90;;;;;;5009347;28;20491;-72
2023/11/03 12:44:52;;;;;;;4.00;0.40;;;11.10;99.90;;;;;;5009751;28;20418;-72
2023/11/03 12:47:40;;;;;;;4.00;0.50;;;11.10;99.90;;;;;;5009712;28;20432;-72
2023/11/03 12:50:13;;;;;;;5.50;0.90;;;11.10;99.90;;;;;;5009618;28;20761;-72
2023/11/03 12:52:39;;;;;;;4.00;0.30;;;11.10;99.90;;;;;;5009908;28;20745;-73
2023/11/03 12:55:05;;;;;;;4.67;0.90;;;11.00;99.90;;;;;;5007697;28;20425;-72
2023/11/03 12:57:35;;;;;;;4.10;0.47;;;10.80;99.90;;;;;;5009540;28;20440;-73
2023/11/03 13:00:02;;;;;;;4.20;0.70;;;10.60;99.90;;;;;;5004948;28;20455;-72
2023/11/03 13:02:29;;;;;;;5.20;0.70;;;10.60;99.90;;;;;;5007418;28;20837;-73